createdAt,value
2018-05-29T00:01:32.078Z,5.37
2018-05-29T00:04:00.635Z,4.23
2018-05-29T00:06:29.230Z,5.00
2018-05-29T00:08:57.779Z,4.30
2018-05-29T00:11:26.411Z,4.57
2018-05-29T00:13:54.968Z,5.20
2018-05-29T00:16:23.766Z,4.10
2018-05-29T00:18:52.310Z,4.50
2018-05-29T00:21:20.869Z,4.37
2018-05-29T00:23:49.441Z,5.00
2018-05-29T00:26:18.136Z,4.63
2018-05-29T00:28:46.680Z,4.10
2018-05-29T00:31:15.227Z,4.37
2018-05-29T00:33:43.783Z,4.90
2018-05-29T00:36:12.344Z,4.60
2018-05-29T00:38:40.906Z,4.23
2018-05-29T00:41:09.468Z,4.47
2018-05-29T00:43:38.033Z,4.53
2018-05-29T00:46:06.586Z,4.30
2018-05-29T00:48:35.139Z,4.07
2018-05-29T00:51:03.697Z,4.27
2018-05-29T00:53:32.245Z,4.60
2018-05-29T00:56:00.818Z,4.10
2018-05-29T00:58:29.381Z,3.93
2018-05-29T01:00:57.936Z,4.63
2018-05-29T01:03:26.487Z,4.07
2018-05-29T01:05:55.050Z,3.83
2018-05-29T01:08:23.628Z,4.13
2018-05-29T01:10:52.416Z,4.10
2018-05-29T01:13:20.969Z,4.07
2018-05-29T01:15:49.526Z,4.40
2018-05-29T01:18:18.083Z,4.07
2018-05-29T01:23:20.524Z,4.60
2018-05-29T01:25:49.115Z,4.10
2018-05-29T01:28:17.663Z,4.00
2018-05-29T01:30:46.206Z,5.10
2018-05-29T01:33:14.755Z,6.83
2018-05-29T01:35:43.315Z,7.03
2018-05-29T01:38:11.869Z,7.03
2018-05-29T01:40:40.415Z,6.63
2018-05-29T01:43:09.043Z,7.30
2018-05-29T01:45:37.597Z,7.33
2018-05-29T01:48:06.152Z,7.30
2018-05-29T01:50:34.698Z,7.27
2018-05-29T01:53:03.284Z,6.63
2018-05-29T01:55:31.849Z,6.67
2018-05-29T01:58:00.411Z,6.23
2018-05-29T02:00:28.972Z,6.60
2018-05-29T02:02:57.523Z,6.40
2018-05-29T02:05:26.084Z,7.67
2018-05-29T02:07:54.642Z,6.87
2018-05-29T02:10:23.208Z,7.33
2018-05-29T02:12:51.755Z,7.00
2018-05-29T02:15:20.332Z,6.17
2018-05-29T02:17:48.886Z,6.10
2018-05-29T02:20:17.483Z,6.57
2018-05-29T02:23:02.613Z,5.10
2018-05-29T02:25:31.160Z,5.63
2018-05-29T02:27:59.710Z,5.60
2018-05-29T02:30:28.320Z,5.60
2018-05-29T02:32:56.874Z,6.57
2018-05-29T02:35:25.423Z,6.73
2018-05-29T02:37:53.985Z,6.07
2018-05-29T02:40:22.539Z,6.27
2018-05-29T02:42:51.103Z,6.03
2018-05-29T02:45:19.670Z,7.03
2018-05-29T02:47:48.227Z,6.83
2018-05-29T02:50:16.783Z,6.80
2018-05-29T02:52:45.352Z,5.87
2018-05-29T02:55:13.906Z,6.50
2018-05-29T02:57:42.464Z,6.67
2018-05-29T03:00:11.061Z,6.23
2018-05-29T03:02:39.611Z,5.87
2018-05-29T03:05:08.154Z,5.90
2018-05-29T03:07:36.777Z,5.20
2018-05-29T03:10:05.026Z,6.57
2018-05-29T03:12:33.770Z,6.20
2018-05-29T03:15:02.325Z,6.43
2018-05-29T03:17:30.881Z,6.60
2018-05-29T03:19:59.442Z,5.93
2018-05-29T03:22:27.997Z,6.33
2018-05-29T03:24:56.588Z,6.10
2018-05-29T03:27:25.179Z,6.07
2018-05-29T03:29:53.732Z,6.30
2018-05-29T03:32:22.311Z,6.50
2018-05-29T03:34:50.876Z,6.50
2018-05-29T03:37:19.436Z,6.17
2018-05-29T03:39:47.999Z,6.33
2018-05-29T03:42:16.552Z,6.37
2018-05-29T03:44:45.151Z,6.30
2018-05-29T03:47:13.732Z,6.10
2018-05-29T03:49:42.298Z,6.53
2018-05-29T03:52:10.864Z,6.40
2018-05-29T03:54:39.450Z,6.57
2018-05-29T03:57:08.012Z,6.50
2018-05-29T03:59:36.559Z,15.93
2018-05-29T04:02:04.779Z,7.27
2018-05-29T04:04:33.347Z,9.57
2018-05-29T04:07:01.894Z,7.33
2018-05-29T04:09:30.501Z,6.13
2018-05-29T04:12:00.728Z,6.67
2018-05-29T04:14:29.293Z,6.07
2018-05-29T04:16:57.874Z,6.10
2018-05-29T04:19:26.605Z,6.20
2018-05-29T04:21:54.927Z,6.57
2018-05-29T04:24:23.483Z,6.53
2018-05-29T04:26:52.040Z,6.33
2018-05-29T04:29:20.596Z,6.43
2018-05-29T04:31:49.255Z,6.43
2018-05-29T04:34:17.814Z,6.30
2018-05-29T04:36:46.372Z,7.03
2018-05-29T04:39:14.976Z,6.80
2018-05-29T04:41:43.554Z,9.20
2018-05-29T04:44:12.325Z,7.67
2018-05-29T04:46:40.880Z,8.00
2018-05-29T04:49:09.512Z,7.53
2018-05-29T04:51:38.063Z,6.30
2018-05-29T04:54:06.655Z,6.60
2018-05-29T04:56:35.314Z,6.83
2018-05-29T04:59:04.059Z,5.93
2018-05-29T05:01:32.613Z,6.33
2018-05-29T05:04:01.255Z,7.07
2018-05-29T05:06:29.847Z,6.60
2018-05-29T05:08:58.476Z,7.87
2018-05-29T05:11:26.852Z,6.77
2018-05-29T05:13:55.438Z,7.40
2018-05-29T05:16:23.999Z,7.53
2018-05-29T05:18:52.591Z,7.73
2018-05-29T05:21:21.190Z,8.53
2018-05-29T05:23:49.747Z,8.50
2018-05-29T05:26:18.351Z,8.23
2018-05-29T05:28:46.915Z,8.80
2018-05-29T05:31:15.524Z,8.40
2018-05-29T05:33:44.091Z,8.53
2018-05-29T05:36:12.639Z,7.67
2018-05-29T05:38:41.230Z,7.93
2018-05-29T05:41:09.775Z,6.73
2018-05-29T05:43:38.389Z,7.77
2018-05-29T05:46:07.013Z,8.70
2018-05-29T05:48:35.713Z,7.67
2018-05-29T05:51:04.274Z,6.30
2018-05-29T05:53:32.833Z,15.27
2018-05-29T05:56:01.405Z,6.93
2018-05-29T05:58:29.966Z,6.30
2018-05-29T06:00:58.511Z,6.00
2018-05-29T06:03:27.081Z,5.90
2018-05-29T06:05:55.635Z,3.60
2018-05-29T06:08:24.380Z,4.53
2018-05-29T06:10:52.995Z,4.07
2018-05-29T06:13:21.553Z,3.10
2018-05-29T06:15:50.111Z,3.80
2018-05-29T06:18:18.708Z,4.20
2018-05-29T06:20:47.269Z,4.60
2018-05-29T06:23:15.824Z,3.80
2018-05-29T06:25:44.388Z,3.47
2018-05-29T06:28:12.978Z,3.23
2018-05-29T06:30:41.565Z,4.00
2018-05-29T06:33:10.168Z,3.50
2018-05-29T06:35:38.782Z,3.80
2018-05-29T06:38:07.558Z,4.40
2018-05-29T06:40:36.169Z,3.60
2018-05-29T06:43:04.399Z,4.00
2018-05-29T06:45:32.967Z,3.53
2018-05-29T06:48:01.582Z,4.17
2018-05-29T06:50:30.143Z,4.30
2018-05-29T06:52:58.695Z,4.00
2018-05-29T06:55:27.289Z,3.70
2018-05-29T06:57:55.847Z,3.30
2018-05-29T07:00:24.412Z,3.37
2018-05-29T07:02:53.001Z,3.50
2018-05-29T07:05:21.593Z,2.90
2018-05-29T07:07:50.162Z,3.70
2018-05-29T07:10:18.711Z,3.23
2018-05-29T07:12:47.288Z,4.00
2018-05-29T07:15:15.900Z,3.60
2018-05-29T07:17:44.493Z,3.50
2018-05-29T07:20:13.074Z,3.43
2018-05-29T07:22:41.631Z,3.57
2018-05-29T07:25:10.218Z,2.90
2018-05-29T07:27:38.811Z,3.57
2018-05-29T07:30:07.436Z,3.00
2018-05-29T07:32:36.027Z,3.40
2018-05-29T07:35:04.605Z,3.10
2018-05-29T07:37:33.175Z,4.07
2018-05-29T07:40:01.732Z,3.37
2018-05-29T07:42:30.337Z,3.70
2018-05-29T07:44:58.933Z,3.63
2018-05-29T07:47:27.527Z,4.30
2018-05-29T07:49:56.126Z,3.67
2018-05-29T07:52:24.708Z,4.43
2018-05-29T07:54:53.375Z,4.20
2018-05-29T07:57:22.021Z,4.67
2018-05-29T07:59:51.029Z,4.67
2018-05-29T08:02:19.623Z,4.50
2018-05-29T08:04:48.220Z,4.40
2018-05-29T08:07:17.022Z,4.47
2018-05-29T08:09:45.611Z,4.57
2018-05-29T08:12:14.181Z,4.60
2018-05-29T08:14:42.787Z,4.60
2018-05-29T08:17:11.343Z,5.03
2018-05-29T08:19:40.142Z,4.00
2018-05-29T08:22:08.738Z,3.33
2018-05-29T08:24:37.366Z,4.17
2018-05-29T08:27:06.092Z,4.40
2018-05-29T08:29:34.664Z,4.33
2018-05-29T08:32:03.231Z,6.17
2018-05-29T08:34:31.896Z,6.60
2018-05-29T08:37:00.516Z,6.20
2018-05-29T08:39:29.234Z,2.80
2018-05-29T08:41:57.989Z,3.27
2018-05-29T08:44:26.645Z,3.13
2018-05-29T08:46:55.339Z,2.90
2018-05-29T08:49:23.951Z,3.00
2018-05-29T08:51:52.634Z,4.97
2018-05-29T08:54:21.224Z,4.30
2018-05-29T08:56:49.963Z,3.37
2018-05-29T08:59:18.901Z,2.93
2018-05-29T09:01:47.475Z,2.63
2018-05-29T09:04:16.136Z,2.87
2018-05-29T09:06:44.876Z,2.50
2018-05-29T09:09:13.483Z,2.50
2018-05-29T09:11:42.210Z,3.10
2018-05-29T09:14:10.891Z,2.40
2018-05-29T09:16:39.479Z,3.17
2018-05-29T09:19:08.036Z,2.50
2018-05-29T09:21:36.708Z,2.63
2018-05-29T09:24:05.292Z,2.67
2018-05-29T09:26:33.887Z,2.50
2018-05-29T09:29:02.569Z,3.33
2018-05-29T09:31:31.143Z,2.70
2018-05-29T09:33:59.704Z,2.43
2018-05-29T09:36:28.377Z,3.17
2018-05-29T09:38:57.000Z,2.60
2018-05-29T09:41:25.700Z,3.23
2018-05-29T09:43:54.453Z,2.83
2018-05-29T09:46:23.122Z,3.20
2018-05-29T09:48:51.693Z,3.13
2018-05-29T09:51:20.397Z,2.70
2018-05-29T09:53:49.199Z,3.00
2018-05-29T09:56:17.902Z,3.87
2018-05-29T09:58:46.579Z,3.60
2018-05-29T10:01:15.201Z,3.20
2018-05-29T10:03:43.780Z,2.93
2018-05-29T10:06:12.441Z,2.97
2018-05-29T10:08:41.028Z,2.83
2018-05-29T10:11:09.611Z,2.60
2018-05-29T10:13:38.465Z,2.33
2018-05-29T10:16:07.156Z,2.70
2018-05-29T10:18:35.816Z,3.40
2018-05-29T10:21:04.520Z,2.63
2018-05-29T10:23:33.133Z,2.63
2018-05-29T10:26:01.786Z,2.50
2018-05-29T10:28:30.360Z,2.60
2018-05-29T10:30:58.631Z,2.90
2018-05-29T10:33:27.481Z,2.60
2018-05-29T10:35:56.205Z,3.33
2018-05-29T10:38:24.887Z,3.67
2018-05-29T10:40:53.577Z,2.87
2018-05-29T10:43:22.267Z,3.27
2018-05-29T10:45:50.995Z,2.50
2018-05-29T10:48:19.674Z,3.20
2018-05-29T10:50:48.362Z,2.70
2018-05-29T10:53:16.944Z,2.53
2018-05-29T10:55:45.568Z,2.90
2018-05-29T10:58:14.277Z,3.90
2018-05-29T11:00:42.901Z,3.50
2018-05-29T11:03:11.471Z,2.70
2018-05-29T11:05:40.136Z,3.13
2018-05-29T11:08:08.712Z,3.90
2018-05-29T11:10:37.272Z,3.43
2018-05-29T11:13:05.828Z,3.00
2018-05-29T11:15:34.400Z,3.00
2018-05-29T11:18:02.965Z,3.23
2018-05-29T11:20:31.523Z,3.20
2018-05-29T11:23:00.081Z,2.97
2018-05-29T11:25:28.649Z,3.50
2018-05-29T11:27:57.213Z,2.90
2018-05-29T11:30:25.803Z,3.23
2018-05-29T11:32:54.411Z,2.97
2018-05-29T11:35:22.976Z,3.10
2018-05-29T11:37:51.548Z,3.07
2018-05-29T11:40:20.127Z,3.40
2018-05-29T11:42:48.723Z,3.70
2018-05-29T11:45:17.281Z,4.20
2018-05-29T11:47:45.872Z,3.73
2018-05-29T11:50:14.435Z,3.20
2018-05-29T11:52:43.039Z,3.00
2018-05-29T11:55:11.586Z,2.93
2018-05-29T11:57:40.346Z,2.83
2018-05-29T12:00:08.931Z,3.10
2018-05-29T12:02:37.203Z,2.97
2018-05-29T12:05:05.442Z,2.83
2018-05-29T12:07:34.078Z,2.97
2018-05-29T12:10:02.639Z,2.70
2018-05-29T12:12:30.857Z,3.40
2018-05-29T12:14:59.420Z,3.13
2018-05-29T12:17:27.977Z,3.50
2018-05-29T12:19:56.531Z,3.33
2018-05-29T12:22:25.155Z,3.33
2018-05-29T12:24:53.854Z,3.40
2018-05-29T12:27:22.441Z,3.17
2018-05-29T12:29:50.987Z,3.07
2018-05-29T12:32:19.576Z,2.70
2018-05-29T12:34:48.182Z,3.27
2018-05-29T12:37:16.754Z,3.17
2018-05-29T12:39:45.309Z,3.20
2018-05-29T12:42:13.871Z,3.67
2018-05-29T12:44:42.437Z,3.20
2018-05-29T12:47:11.000Z,3.43
2018-05-29T12:49:39.543Z,3.30
2018-05-29T12:52:08.105Z,3.33
2018-05-29T12:54:36.692Z,3.00
2018-05-29T12:57:05.267Z,3.63
2018-05-29T12:59:33.818Z,3.60
2018-05-29T13:02:02.368Z,3.20
2018-05-29T13:04:30.916Z,2.70
2018-05-29T13:06:59.475Z,3.20
2018-05-29T13:09:28.022Z,3.70
2018-05-29T13:11:56.575Z,3.67
2018-05-29T13:14:25.127Z,3.30
2018-05-29T13:16:53.691Z,3.70
2018-05-29T13:19:22.265Z,3.80
2018-05-29T13:21:50.827Z,3.30
2018-05-29T13:24:19.386Z,3.77
2018-05-29T13:26:47.974Z,4.40
2018-05-29T13:29:16.533Z,3.70
2018-05-29T13:31:45.083Z,3.70
2018-05-29T13:34:13.642Z,3.73
2018-05-29T13:36:42.269Z,3.47
2018-05-29T13:39:10.885Z,3.63
2018-05-29T13:41:39.596Z,3.40
2018-05-29T13:44:08.149Z,3.50
2018-05-29T13:46:36.708Z,3.80
2018-05-29T13:49:05.051Z,3.60
2018-05-29T13:51:33.624Z,3.70
2018-05-29T13:54:02.201Z,3.53
2018-05-29T13:56:30.768Z,3.87
2018-05-29T13:58:59.326Z,4.03
2018-05-29T14:01:27.892Z,4.03
2018-05-29T14:03:56.472Z,3.70
2018-05-29T14:06:24.716Z,3.90
2018-05-29T14:08:53.301Z,4.10
2018-05-29T14:11:22.036Z,4.13
2018-05-29T14:13:50.598Z,4.00
2018-05-29T14:16:19.150Z,3.73
2018-05-29T14:18:47.729Z,4.30
2018-05-29T14:21:16.295Z,3.90
2018-05-29T14:23:44.847Z,3.87
2018-05-29T14:26:13.428Z,4.20
2018-05-29T14:28:41.982Z,3.83
2018-05-29T14:31:10.534Z,3.77
2018-05-29T14:33:39.091Z,4.57
2018-05-29T14:36:07.688Z,4.07
2018-05-29T14:38:36.234Z,3.60
2018-05-29T14:41:04.783Z,3.37
2018-05-29T14:43:33.385Z,3.97
2018-05-29T14:46:01.944Z,3.47
2018-05-29T14:48:30.499Z,3.53
2018-05-29T14:50:59.040Z,3.60
2018-05-29T14:53:27.594Z,4.50
2018-05-29T14:55:56.188Z,4.00
2018-05-29T14:58:24.739Z,4.23
2018-05-29T15:00:53.334Z,3.70
2018-05-29T15:03:21.888Z,3.50
2018-05-29T15:05:50.453Z,3.53
2018-05-29T15:08:19.020Z,3.80
2018-05-29T15:10:47.584Z,3.50
2018-05-29T15:13:16.175Z,3.80
2018-05-29T15:15:45.675Z,4.73
2018-05-29T15:18:14.242Z,4.03
2018-05-29T15:20:42.854Z,3.87
2018-05-29T15:23:11.443Z,4.50
2018-05-29T15:25:39.684Z,4.23
2018-05-29T15:28:08.289Z,4.07
2018-05-29T15:30:36.885Z,3.90
2018-05-29T15:33:05.452Z,4.23
2018-05-29T15:35:34.023Z,4.03
2018-05-29T15:38:02.575Z,4.50
2018-05-29T15:40:31.131Z,4.30
2018-05-29T15:42:59.687Z,4.17
2018-05-29T15:45:28.232Z,3.80
2018-05-29T15:47:56.827Z,4.40
2018-05-29T15:50:25.403Z,4.50
2018-05-29T15:52:53.985Z,4.70
2018-05-29T15:55:22.538Z,4.30
2018-05-29T15:57:51.127Z,4.67
2018-05-29T16:00:19.716Z,4.53
2018-05-29T16:02:48.291Z,4.77
2018-05-29T16:05:16.892Z,4.47
2018-05-29T16:07:45.444Z,4.57
2018-05-29T16:10:13.998Z,5.03
2018-05-29T16:12:42.563Z,4.43
2018-05-29T16:15:12.271Z,4.83
2018-05-29T16:17:40.833Z,4.83
2018-05-29T16:20:09.387Z,4.70
2018-05-29T16:22:37.952Z,4.87
2018-05-29T16:25:06.551Z,4.20
2018-05-29T16:27:35.331Z,4.27
2018-05-29T16:30:04.671Z,4.77
2018-05-29T16:32:33.292Z,4.57
2018-05-29T16:35:01.855Z,5.10
2018-05-29T16:37:30.403Z,4.63
2018-05-29T16:39:58.959Z,4.80
2018-05-29T16:42:27.515Z,4.90
2018-05-29T16:44:56.087Z,4.77
2018-05-29T16:47:24.630Z,4.53
2018-05-29T16:49:53.192Z,4.67
2018-05-29T16:52:21.765Z,4.60
2018-05-29T16:54:50.310Z,4.80
2018-05-29T16:57:19.694Z,5.03
2018-05-29T16:59:48.258Z,4.70
2018-05-29T17:02:16.814Z,5.27
2018-05-29T17:04:45.446Z,4.87
2018-05-29T17:07:14.201Z,6.47
2018-05-29T17:09:42.862Z,5.63
2018-05-29T17:12:11.447Z,5.70
2018-05-29T17:14:40.035Z,6.43
2018-05-29T17:17:08.625Z,5.23
2018-05-29T17:19:37.170Z,4.87
2018-05-29T17:22:05.723Z,5.23
2018-05-29T17:24:34.276Z,5.50
2018-05-29T17:27:02.868Z,5.07
2018-05-29T17:29:31.427Z,5.07
2018-05-29T17:31:59.994Z,5.73
2018-05-29T17:34:28.753Z,4.83
2018-05-29T17:36:57.309Z,4.70
2018-05-29T17:39:25.863Z,5.23
2018-05-29T17:41:54.506Z,4.63
2018-05-29T17:44:23.068Z,5.07
2018-05-29T17:46:51.615Z,5.00
2018-05-29T17:49:20.177Z,5.87
2018-05-29T17:51:48.781Z,4.70
2018-05-29T17:54:17.371Z,5.03
2018-05-29T17:56:45.931Z,4.67
2018-05-29T17:59:14.510Z,5.33
2018-05-29T18:01:43.114Z,4.60
2018-05-29T18:04:11.714Z,5.67
2018-05-29T18:06:40.266Z,5.40
2018-05-29T18:09:08.906Z,4.67
2018-05-29T18:11:37.466Z,4.20
2018-05-29T18:14:06.077Z,4.77
2018-05-29T18:16:34.839Z,4.33
2018-05-29T18:19:03.436Z,4.77
2018-05-29T18:21:32.015Z,4.10
2018-05-29T18:24:00.584Z,4.80
2018-05-29T18:26:29.171Z,4.87
2018-05-29T18:28:57.763Z,4.73
2018-05-29T18:31:26.372Z,5.80
2018-05-29T18:33:54.927Z,6.10
2018-05-29T18:36:23.489Z,6.33
2018-05-29T18:38:52.049Z,6.27
2018-05-29T18:41:20.623Z,6.20
2018-05-29T18:43:48.873Z,6.97
2018-05-29T18:46:17.439Z,6.53
2018-05-29T18:48:46.007Z,8.33
2018-05-29T18:51:14.568Z,7.47
2018-05-29T18:53:42.900Z,7.50
2018-05-29T18:56:11.467Z,8.37
2018-05-29T18:58:40.019Z,8.10
2018-05-29T19:01:08.589Z,19.17
2018-05-29T19:03:37.218Z,9.03
2018-05-29T19:06:05.928Z,10.47
2018-05-29T19:08:34.534Z,7.97
2018-05-29T19:11:03.094Z,10.80
2018-05-29T19:13:31.667Z,10.80
2018-05-29T19:16:00.231Z,10.93
2018-05-29T19:18:28.798Z,9.03
2018-05-29T19:20:57.374Z,6.80
2018-05-29T19:23:25.939Z,11.67
2018-05-29T19:25:54.500Z,10.10
2018-05-29T19:28:23.070Z,20.60
2018-05-29T19:30:51.630Z,14.77
2018-05-29T19:33:20.239Z,12.03
2018-05-29T19:35:48.799Z,9.93
2018-05-29T19:38:17.356Z,8.63
2018-05-29T19:40:45.922Z,8.63
2018-05-29T19:43:14.489Z,10.80
2018-05-29T19:45:43.048Z,15.43
2018-05-29T19:48:11.631Z,12.60
2018-05-29T19:50:40.194Z,16.40
2018-05-29T19:53:08.752Z,13.63
2018-05-29T19:55:37.368Z,12.13
2018-05-29T19:58:05.952Z,31.53
2018-05-29T20:00:34.564Z,71.90
2018-05-29T20:03:03.182Z,19.37
2018-05-29T20:05:31.936Z,16.77
2018-05-29T20:08:00.507Z,12.97
2018-05-29T20:10:29.127Z,10.50
2018-05-29T20:12:57.860Z,14.20
2018-05-29T20:15:26.420Z,14.57
2018-05-29T20:17:54.987Z,10.97
2018-05-29T20:20:23.547Z,11.83
2018-05-29T20:22:52.153Z,10.20
2018-05-29T20:25:20.733Z,8.83
2018-05-29T20:27:49.353Z,14.00
2018-05-29T20:30:18.036Z,22.13
2018-05-29T20:32:46.606Z,12.00
2018-05-29T20:35:15.244Z,8.47
2018-05-29T20:37:43.811Z,14.80
2018-05-29T20:40:12.380Z,7.37
2018-05-29T20:42:40.940Z,7.30
2018-05-29T20:45:09.512Z,5.87
2018-05-29T20:47:38.719Z,6.90
2018-05-29T20:50:07.326Z,6.80
2018-05-29T20:52:36.039Z,6.23
2018-05-29T20:55:03.967Z,5.40
2018-05-29T20:57:32.531Z,5.93
2018-05-29T21:00:01.094Z,5.40
2018-05-29T21:02:29.654Z,5.33
2018-05-29T21:04:58.218Z,5.43
2018-05-29T21:07:27.298Z,4.83
2018-05-29T21:09:55.903Z,5.50
2018-05-29T21:12:24.475Z,5.13
2018-05-29T21:14:53.075Z,5.27
2018-05-29T21:17:21.625Z,5.07
2018-05-29T21:19:50.197Z,5.33
2018-05-29T21:22:18.809Z,4.60
2018-05-29T21:24:47.509Z,5.13
2018-05-29T21:27:16.063Z,4.60
2018-05-29T21:29:44.647Z,4.50
2018-05-29T21:32:13.212Z,4.67
2018-05-29T21:34:41.776Z,4.43
2018-05-29T21:37:10.342Z,4.50
2018-05-29T21:39:38.891Z,5.40
2018-05-29T21:42:07.461Z,5.10
2018-05-29T21:44:36.011Z,4.13
2018-05-29T21:47:04.559Z,4.50
2018-05-29T21:49:33.150Z,4.53
2018-05-29T21:52:01.699Z,4.60
2018-05-29T21:54:30.253Z,4.80
2018-05-29T21:56:58.806Z,4.47
2018-05-29T21:59:27.364Z,4.70
2018-05-29T22:01:55.920Z,4.30
2018-05-29T22:04:24.470Z,4.57
2018-05-29T22:06:53.072Z,3.97
2018-05-29T22:09:21.624Z,4.50
2018-05-29T22:11:50.178Z,4.47
2018-05-29T22:14:18.787Z,4.50
2018-05-29T22:16:47.334Z,4.47
2018-05-29T22:19:15.890Z,4.80
2018-05-29T22:21:44.441Z,5.17
2018-05-29T22:24:13.023Z,5.80
2018-05-29T22:26:41.570Z,5.00
2018-05-29T22:29:10.122Z,5.50
2018-05-29T22:31:38.703Z,4.60
2018-05-29T22:34:07.262Z,5.23
2018-05-29T22:36:35.867Z,4.50
2018-05-29T22:39:03.542Z,4.93
2018-05-29T22:41:32.139Z,5.10
2018-05-29T22:44:00.514Z,5.03
2018-05-29T22:46:29.059Z,4.70
2018-05-29T22:48:57.602Z,4.57
2018-05-29T22:51:26.148Z,4.63
2018-05-29T22:53:54.702Z,4.63
2018-05-29T22:56:23.251Z,4.57
2018-05-29T22:58:51.799Z,5.40
2018-05-29T23:01:20.382Z,4.83
2018-05-29T23:03:48.975Z,5.07
2018-05-29T23:06:17.525Z,5.10
2018-05-29T23:08:46.120Z,4.83
2018-05-29T23:11:14.675Z,5.60
2018-05-29T23:13:43.268Z,5.00
2018-05-29T23:16:11.857Z,5.03
2018-05-29T23:18:40.433Z,5.87
2018-05-29T23:21:09.027Z,5.50
2018-05-29T23:23:37.582Z,6.73
2018-05-29T23:26:06.171Z,6.23
2018-05-29T23:28:34.732Z,6.20
2018-05-29T23:31:03.345Z,6.77
2018-05-29T23:33:31.958Z,6.87
2018-05-29T23:36:00.509Z,6.97
2018-05-29T23:38:29.071Z,8.40
2018-05-29T23:40:57.636Z,7.63
2018-05-29T23:43:26.231Z,8.27
2018-05-29T23:45:54.789Z,7.50
2018-05-29T23:48:23.350Z,7.97
2018-05-29T23:50:51.951Z,7.63
2018-05-29T23:53:20.511Z,8.13
2018-05-29T23:55:49.103Z,9.77
2018-05-29T23:58:17.654Z,8.67
